Terminal Aerodrome Forecast
Issued by NWS Cleveland, OH

Home | Current Version | Previous Version | Text Only | Print | Product List | Glossary Off
Versions: 1 2 3 4 5 6 7 8 9 10 11 12 13 14 15

000
FTUS41 KCLE 212335
TAFYNG
TAF
KYNG 212335Z 2200/2224 30009KT P6SM BKN150
     FM220300 33012KT P6SM SCT035 BKN250
     FM220600 34012KT P6SM BKN030
     FM221600 35012KT P6SM SCT035
     FM222200 36007KT P6SM SKC=

USA.gov is the U.S. government's official web portal to all federal, state and local government web resources and services.